Time;durP1;ratioP1;P1;durP2;ratioP2;P2;SDS_P1;SDS_P2;PMS_P1;PMS_P2;Temp;Humidity;BMP_temperature;BMP_pressure;BME280_temperature;BME280_humidity;BME280_pressure;Samples;Min_cycle;Max_cycle;Signal;HPM_P1;HPM_P2
2023/05/17 00:00:26;;;;;;;1.43;1.30;;;10.50;99.90;;;;;;4989343;28;20217;-71
2023/05/17 00:02:52;;;;;;;1.87;1.30;;;10.50;99.90;;;;;;4989069;28;20240;-72
2023/05/17 00:05:19;;;;;;;2.87;1.40;;;10.50;99.90;;;;;;4989298;28;20214;-72
2023/05/17 00:07:47;;;;;;;2.57;1.50;;;10.50;99.90;;;;;;4988979;28;20356;-71
2023/05/17 00:10:14;;;;;;;2.70;1.67;;;10.50;99.90;;;;;;4981262;28;20207;-71
2023/05/17 00:12:42;;;;;;;2.03;1.43;;;10.40;99.90;;;;;;4974949;28;20212;-72
2023/05/17 00:15:10;;;;;;;3.00;1.50;;;10.30;99.90;;;;;;4984791;28;20469;-72
2023/05/17 00:17:37;;;;;;;5.90;1.67;;;10.30;99.90;;;;;;4988093;28;20289;-72
2023/05/17 00:20:04;;;;;;;3.87;1.97;;;10.30;99.90;;;;;;4988982;28;20206;-71
2023/05/17 00:22:31;;;;;;;2.53;1.60;;;10.30;99.90;;;;;;4988384;28;20249;-71
2023/05/17 00:24:58;;;;;;;3.83;1.70;;;10.30;99.90;;;;;;4988268;28;20214;-71
2023/05/17 00:27:25;;;;;;;5.10;1.93;;;10.20;99.90;;;;;;4988689;28;20281;-70
2023/05/17 00:29:53;;;;;;;3.83;1.63;;;10.10;99.90;;;;;;4989273;28;20323;-70
2023/05/17 00:32:20;;;;;;;6.83;1.90;;;10.20;99.90;;;;;;4988327;28;20583;-70
2023/05/17 00:34:47;;;;;;;4.73;1.83;;;10.20;99.90;;;;;;4988818;28;20671;-70
2023/05/17 00:37:14;;;;;;;2.33;1.57;;;10.20;99.90;;;;;;4988719;28;20660;-70
2023/05/17 00:39:40;;;;;;;4.53;1.60;;;10.10;99.90;;;;;;4988330;28;20312;-71
2023/05/17 00:42:07;;;;;;;5.77;2.00;;;10.10;99.90;;;;;;4984271;28;20210;-70
2023/05/17 00:44:34;;;;;;;6.03;2.07;;;10.00;99.90;;;;;;4988497;28;20555;-70
2023/05/17 00:47:03;;;;;;;4.27;1.97;;;10.00;99.90;;;;;;4988108;28;20317;-71
2023/05/17 00:49:30;;;;;;;4.20;1.83;;;10.00;99.90;;;;;;4987828;28;20297;-71
2023/05/17 00:51:57;;;;;;;4.30;1.90;;;10.10;99.90;;;;;;4988565;28;20213;-71
2023/05/17 00:54:23;;;;;;;3.60;2.00;;;10.00;99.90;;;;;;4988305;28;20313;-71
2023/05/17 00:56:51;;;;;;;5.43;1.97;;;10.00;99.90;;;;;;4988525;28;20301;-71
2023/05/17 00:59:18;;;;;;;6.07;2.33;;;10.10;99.90;;;;;;4987955;28;20699;-71
2023/05/17 01:01:45;;;;;;;7.67;2.43;;;10.10;99.90;;;;;;4988301;28;20214;-71
2023/05/17 01:04:13;;;;;;;6.17;2.40;;;10.00;99.90;;;;;;4987983;28;20817;-71
2023/05/17 01:06:40;;;;;;;6.83;2.63;;;9.90;99.90;;;;;;4988324;28;20299;-71
2023/05/17 01:09:08;;;;;;;4.43;2.60;;;9.80;99.90;;;;;;4987748;28;20341;-71
2023/05/17 01:11:44;;;;;;;7.10;1.97;;;9.90;99.90;;;;;;4970576;28;20325;-71
2023/05/17 01:14:27;;;;;;;7.77;2.73;;;9.80;99.90;;;;;;4969011;28;20350;-71
2023/05/17 01:16:57;;;;;;;6.33;2.53;;;9.60;99.90;;;;;;4968636;28;20301;-71
2023/05/17 01:19:48;;;;;;;4.50;2.40;;;9.60;99.90;;;;;;4985344;28;20756;-70
2023/05/17 01:22:32;;;;;;;4.90;2.40;;;9.50;99.90;;;;;;4987674;28;20186;-70
2023/05/17 01:25:11;;;;;;;12.20;2.80;;;9.50;99.90;;;;;;4987651;28;20209;-71
2023/05/17 01:27:43;;;;;;;5.37;2.60;;;9.50;99.90;;;;;;4986843;28;20222;-70
2023/05/17 01:30:13;;;;;;;8.57;2.60;;;9.40;99.90;;;;;;4987737;28;20201;-70
2023/05/17 01:32:41;;;;;;;8.07;2.60;;;9.40;99.90;;;;;;4987496;28;20229;-70
2023/05/17 01:35:10;;;;;;;4.80;2.90;;;9.30;99.90;;;;;;4987530;28;20210;-70
2023/05/17 01:37:38;;;;;;;7.10;2.63;;;9.10;99.90;;;;;;4987307;28;20665;-70
2023/05/17 01:40:07;;;;;;;6.47;2.83;;;9.10;99.90;;;;;;4987029;28;20301;-70
2023/05/17 01:42:37;;;;;;;8.10;3.00;;;9.10;99.90;;;;;;4986986;28;20206;-70
2023/05/17 01:45:09;;;;;;;5.33;2.57;;;9.10;99.90;;;;;;4983206;28;20276;-70
2023/05/17 01:47:43;;;;;;;5.23;2.63;;;9.00;99.90;;;;;;4987089;28;20739;-71
2023/05/17 01:50:12;;;;;;;5.20;2.47;;;9.10;99.90;;;;;;4987361;28;20198;-71
2023/05/17 01:52:50;;;;;;;6.70;3.10;;;9.30;99.90;;;;;;4987079;28;20218;-71
2023/05/17 01:55:24;;;;;;;3.87;2.60;;;9.40;99.90;;;;;;4987222;28;20225;-71
2023/05/17 01:57:53;;;;;;;4.47;2.63;;;9.30;99.90;;;;;;4987325;28;20285;-71
2023/05/17 02:00:23;;;;;;;6.47;2.70;;;9.20;99.90;;;;;;4987192;28;20292;-70
2023/05/17 02:02:50;;;;;;;10.83;2.83;;;9.20;99.90;;;;;;4974508;28;20632;-70
2023/05/17 02:05:17;;;;;;;9.47;3.10;;;9.00;99.90;;;;;;4967160;28;20745;-71
2023/05/17 02:07:44;;;;;;;5.87;2.93;;;8.90;99.90;;;;;;4966886;28;20765;-70
2023/05/17 02:10:12;;;;;;;4.50;2.90;;;9.00;99.90;;;;;;4973728;28;20221;-72
2023/05/17 02:12:38;;;;;;;5.70;2.70;;;9.00;99.90;;;;;;4986691;28;20225;-72
2023/05/17 02:15:07;;;;;;;4.80;2.77;;;9.00;99.90;;;;;;4986819;28;20244;-71
2023/05/17 02:17:35;;;;;;;7.07;2.70;;;9.10;99.90;;;;;;4986369;28;20522;-70
2023/05/17 02:20:03;;;;;;;7.90;2.87;;;9.00;99.90;;;;;;4986290;28;20570;-72
2023/05/17 02:22:30;;;;;;;7.10;2.60;;;9.00;99.90;;;;;;4986348;28;20214;-72
2023/05/17 02:24:57;;;;;;;5.53;3.03;;;9.00;99.90;;;;;;4986225;28;20285;-72
2023/05/17 02:27:23;;;;;;;6.77;3.10;;;9.10;99.90;;;;;;4982587;28;20345;-71
2023/05/17 02:29:50;;;;;;;5.93;2.70;;;9.00;99.90;;;;;;4978567;28;20673;-71
2023/05/17 02:32:17;;;;;;;5.07;3.00;;;9.00;99.90;;;;;;4984694;28;20312;-71
2023/05/17 02:34:45;;;;;;;7.13;3.20;;;9.00;99.90;;;;;;4984565;28;20233;-71
2023/05/17 02:37:12;;;;;;;8.33;3.27;;;9.00;99.90;;;;;;4984410;28;20210;-72
2023/05/17 02:39:39;;;;;;;5.33;2.63;;;9.00;99.90;;;;;;4984004;28;20297;-71
2023/05/17 02:42:07;;;;;;;9.07;3.23;;;9.00;99.90;;;;;;4984519;28;20216;-71
2023/05/17 02:44:33;;;;;;;7.23;2.70;;;9.00;99.90;;;;;;4984229;28;20210;-71
2023/05/17 02:47:00;;;;;;;9.37;3.40;;;9.10;99.90;;;;;;4986132;28;20305;-71
2023/05/17 02:49:27;;;;;;;8.10;3.20;;;9.20;99.90;;;;;;4988287;28;20297;-71
2023/05/17 02:51:56;;;;;;;6.60;2.77;;;9.10;99.90;;;;;;4988673;28;20213;-71
2023/05/17 02:54:22;;;;;;;6.10;2.97;;;9.10;99.90;;;;;;4987790;28;20229;-71
2023/05/17 02:56:49;;;;;;;4.13;2.50;;;9.10;99.90;;;;;;4982135;28;20213;-71
2023/05/17 02:59:16;;;;;;;8.80;3.10;;;9.00;99.90;;;;;;4988121;28;20655;-71
2023/05/17 03:01:43;;;;;;;8.23;3.17;;;9.00;99.90;;;;;;4988244;28;20210;-72
2023/05/17 03:04:11;;;;;;;8.13;3.40;;;9.10;99.90;;;;;;4989121;28;20210;-72
2023/05/17 03:06:38;;;;;;;6.50;3.00;;;9.00;99.90;;;;;;4988936;28;20210;-72
2023/05/17 03:09:06;;;;;;;10.87;3.27;;;8.90;99.90;;;;;;4988949;28;20252;-72
2023/05/17 03:11:33;;;;;;;5.73;3.03;;;9.00;99.90;;;;;;4989605;28;20244;-72
2023/05/17 03:14:00;;;;;;;6.50;2.97;;;9.00;99.90;;;;;;4990342;28;20662;-72
2023/05/17 03:16:27;;;;;;;6.40;3.00;;;9.00;99.90;;;;;;4990109;28;20449;-71
2023/05/17 03:18:54;;;;;;;8.50;3.50;;;9.00;99.90;;;;;;4989689;28;20296;-72
2023/05/17 03:21:21;;;;;;;4.63;2.87;;;9.00;99.90;;;;;;4990095;28;20297;-72
2023/05/17 03:23:48;;;;;;;5.47;2.83;;;9.10;99.90;;;;;;4989479;28;20212;-72
2023/05/17 03:26:17;;;;;;;8.50;3.13;;;9.10;99.90;;;;;;4989511;28;20301;-72
2023/05/17 03:28:44;;;;;;;6.83;2.97;;;9.00;99.90;;;;;;4989233;28;20254;-72
2023/05/17 03:31:11;;;;;;;7.63;3.10;;;9.00;99.90;;;;;;4989038;28;20210;-71
2023/05/17 03:33:38;;;;;;;6.87;2.87;;;8.90;99.90;;;;;;4989156;28;20764;-71
2023/05/17 03:36:07;;;;;;;12.13;3.20;;;8.90;99.90;;;;;;4983441;28;20262;-72
2023/05/17 03:38:34;;;;;;;8.57;3.50;;;8.80;99.90;;;;;;4988910;28;20514;-71
2023/05/17 03:41:01;;;;;;;8.63;3.53;;;8.80;99.90;;;;;;4976568;28;20218;-72
2023/05/17 03:43:29;;;;;;;7.50;3.30;;;8.70;99.90;;;;;;4969604;28;20890;-72
2023/05/17 03:45:56;;;;;;;8.50;3.63;;;8.80;99.90;;;;;;4969637;28;20214;-72
2023/05/17 03:48:23;;;;;;;6.03;3.13;;;8.80;99.90;;;;;;4969423;28;20240;-71
2023/05/17 03:50:50;;;;;;;8.47;3.47;;;8.80;99.90;;;;;;4969626;28;20250;-72
2023/05/17 03:53:17;;;;;;;9.47;3.50;;;8.80;99.90;;;;;;4969338;28;20804;-72
2023/05/17 03:55:44;;;;;;;9.77;3.63;;;8.80;99.90;;;;;;4969473;28;20228;-72
2023/05/17 03:58:11;;;;;;;6.47;3.50;;;8.90;99.90;;;;;;4968517;28;20215;-72
2023/05/17 04:00:39;;;;;;;8.53;3.40;;;8.90;99.90;;;;;;4969363;28;20234;-72
2023/05/17 04:03:06;;;;;;;6.27;3.60;;;9.00;99.90;;;;;;4969153;28;20839;-72
2023/05/17 04:05:33;;;;;;;8.00;3.60;;;8.80;99.90;;;;;;4969144;28;20708;-72
2023/05/17 04:08:00;;;;;;;8.10;3.30;;;8.90;99.90;;;;;;4969121;28;20257;-72
2023/05/17 04:10:27;;;;;;;10.03;3.63;;;8.90;99.90;;;;;;4977054;28;20629;-72
2023/05/17 04:12:54;;;;;;;10.43;4.10;;;8.80;99.90;;;;;;4988632;28;20672;-72
2023/05/17 04:15:21;;;;;;;7.87;3.30;;;8.70;99.90;;;;;;4988566;28;20668;-72
2023/05/17 04:17:49;;;;;;;7.90;3.40;;;8.70;99.90;;;;;;4988670;28;20213;-72
2023/05/17 04:20:16;;;;;;;7.77;3.00;;;8.70;99.90;;;;;;4988071;28;20221;-72
2023/05/17 04:22:43;;;;;;;9.93;3.23;;;8.80;99.90;;;;;;4988471;28;20297;-72
2023/05/17 04:25:10;;;;;;;13.30;3.60;;;8.70;99.90;;;;;;4988660;28;20245;-71
2023/05/17 04:27:38;;;;;;;6.73;3.70;;;8.70;99.90;;;;;;4988260;28;20639;-71
2023/05/17 04:30:06;;;;;;;9.47;4.40;;;8.70;99.90;;;;;;4988691;28;20293;-71
2023/05/17 04:32:34;;;;;;;7.93;3.80;;;8.70;99.90;;;;;;4984850;28;20215;-72
2023/05/17 04:35:03;;;;;;;7.57;3.70;;;8.70;99.90;;;;;;4969169;28;20219;-72
2023/05/17 04:37:30;;;;;;;10.00;3.90;;;8.80;99.90;;;;;;4983759;28;20317;-72
2023/05/17 04:39:57;;;;;;;8.80;3.60;;;8.80;99.90;;;;;;4984083;28;20309;-72
2023/05/17 04:42:25;;;;;;;11.47;4.20;;;8.80;99.90;;;;;;4969216;28;20261;-72
2023/05/17 04:44:52;;;;;;;7.00;3.53;;;8.80;99.90;;;;;;4969048;28;20211;-71
2023/05/17 04:47:19;;;;;;;7.57;3.40;;;8.80;99.90;;;;;;4969121;28;20211;-72
2023/05/17 04:49:46;;;;;;;8.33;3.90;;;8.80;99.90;;;;;;4968816;28;20325;-72
2023/05/17 04:52:14;;;;;;;5.90;3.40;;;8.80;99.90;;;;;;4968627;28;20214;-72
2023/05/17 04:54:41;;;;;;;9.63;4.10;;;8.70;99.90;;;;;;4968671;28;20241;-71
2023/05/17 04:57:08;;;;;;;6.70;3.90;;;8.70;99.90;;;;;;4971080;28;20238;-72
2023/05/17 04:59:34;;;;;;;8.33;4.00;;;8.80;99.90;;;;;;4987743;28;20210;-72
2023/05/17 05:02:01;;;;;;;13.20;4.10;;;8.70;99.90;;;;;;4988183;28;20214;-72
2023/05/17 05:04:28;;;;;;;6.20;3.50;;;8.70;99.90;;;;;;4987700;28;20293;-72
2023/05/17 05:06:55;;;;;;;10.03;3.90;;;8.80;99.90;;;;;;4988157;28;20310;-72
2023/05/17 05:09:23;;;;;;;8.27;3.97;;;8.90;99.90;;;;;;4986716;28;20250;-72
2023/05/17 05:11:50;;;;;;;13.13;4.20;;;9.00;99.90;;;;;;4968219;28;20297;-71
2023/05/17 05:14:18;;;;;;;7.43;3.67;;;8.90;99.90;;;;;;4968103;28;20222;-72
2023/05/17 05:16:45;;;;;;;8.97;3.47;;;8.90;99.90;;;;;;4973751;28;20194;-72
2023/05/17 05:19:12;;;;;;;5.50;3.60;;;9.00;99.90;;;;;;4987591;28;20218;-72
2023/05/17 05:21:38;;;;;;;7.77;3.80;;;8.90;99.90;;;;;;4987836;28;20293;-72
2023/05/17 05:24:06;;;;;;;7.73;3.93;;;9.00;99.90;;;;;;4987303;28;20210;-72
2023/05/17 05:26:34;;;;;;;12.43;3.97;;;9.00;99.90;;;;;;4987114;28;20216;-72
2023/05/17 05:29:01;;;;;;;10.90;3.43;;;9.10;99.90;;;;;;4982006;28;20240;-72
2023/05/17 05:31:29;;;;;;;12.07;3.80;;;9.10;99.90;;;;;;4987076;28;20214;-72
2023/05/17 05:33:55;;;;;;;11.20;3.87;;;9.20;99.90;;;;;;4987397;28;20245;-72
2023/05/17 05:36:22;;;;;;;8.80;3.70;;;9.20;99.90;;;;;;4987073;28;20213;-72
2023/05/17 05:38:52;;;;;;;6.70;3.43;;;9.30;99.90;;;;;;4986791;28;20321;-72
2023/05/17 05:41:19;;;;;;;11.80;3.20;;;9.30;99.90;;;;;;4987809;28;20317;-71
2023/05/17 05:43:47;;;;;;;12.70;4.10;;;9.30;99.90;;;;;;4987425;28;20715;-71
2023/05/17 05:46:14;;;;;;;10.17;3.70;;;9.40;99.90;;;;;;4987250;28;20241;-71
2023/05/17 05:48:41;;;;;;;10.93;3.83;;;9.40;99.90;;;;;;4987164;28;20329;-71
2023/05/17 05:51:09;;;;;;;7.33;3.37;;;9.50;99.90;;;;;;4987137;28;20301;-71
2023/05/17 05:53:36;;;;;;;7.77;3.73;;;9.60;99.90;;;;;;4986610;28;20717;-71
2023/05/17 05:56:03;;;;;;;9.27;3.23;;;9.60;99.90;;;;;;4987293;28;20309;-71
2023/05/17 05:58:30;;;;;;;10.03;3.60;;;9.70;99.90;;;;;;4986897;28;20982;-71
2023/05/17 06:00:59;;;;;;;10.37;3.10;;;9.80;99.90;;;;;;4987115;28;20833;-71
2023/05/17 06:03:26;;;;;;;6.00;3.23;;;10.00;99.90;;;;;;4986607;28;20210;-71
2023/05/17 06:05:53;;;;;;;9.37;3.37;;;10.10;99.90;;;;;;4986819;28;20210;-71
2023/05/17 06:08:20;;;;;;;13.70;3.23;;;10.20;99.90;;;;;;4985765;28;20333;-70
2023/05/17 06:10:47;;;;;;;12.03;3.30;;;10.30;99.90;;;;;;4986434;28;20644;-71
2023/05/17 06:13:14;;;;;;;19.23;3.47;;;10.40;99.90;;;;;;4986483;28;20220;-71
2023/05/17 06:15:41;;;;;;;7.13;2.97;;;10.50;99.90;;;;;;4986687;28;20217;-71
2023/05/17 06:18:09;;;;;;;6.27;2.77;;;10.60;99.90;;;;;;4986596;28;20290;-71
2023/05/17 06:20:36;;;;;;;11.47;3.23;;;10.60;99.90;;;;;;4986623;28;20207;-71
2023/05/17 06:23:03;;;;;;;8.57;3.00;;;10.70;99.90;;;;;;4986547;28;20296;-71
2023/05/17 06:25:30;;;;;;;9.67;3.00;;;10.60;99.90;;;;;;4981784;28;20210;-71
2023/05/17 06:27:57;;;;;;;9.27;3.43;;;10.60;99.90;;;;;;4986774;28;20216;-71
2023/05/17 06:30:26;;;;;;;7.37;3.10;;;10.50;99.90;;;;;;4986818;28;20273;-71
2023/05/17 06:32:53;;;;;;;6.50;3.10;;;10.40;99.90;;;;;;4973665;28;20238;-71
2023/05/17 06:35:21;;;;;;;10.43;3.53;;;10.20;99.90;;;;;;4966834;28;20211;-71
2023/05/17 06:37:48;;;;;;;8.50;3.73;;;10.00;99.90;;;;;;4967273;28;20214;-71
2023/05/17 06:40:15;;;;;;;9.07;3.03;;;9.90;99.90;;;;;;4966632;28;20305;-71
2023/05/17 06:42:42;;;;;;;10.00;3.20;;;9.80;99.90;;;;;;4967367;28;20213;-71
2023/05/17 06:45:10;;;;;;;9.97;3.10;;;9.70;99.90;;;;;;4966830;28;20211;-71
2023/05/17 06:47:37;;;;;;;9.00;2.83;;;9.60;99.90;;;;;;4967007;28;20210;-71
2023/05/17 06:50:04;;;;;;;13.50;3.30;;;9.70;99.90;;;;;;4966578;28;20234;-70
2023/05/17 06:52:32;;;;;;;8.00;2.60;;;9.70;99.90;;;;;;4966476;28;20214;-71
2023/05/17 06:54:59;;;;;;;8.70;2.93;;;9.80;99.90;;;;;;4966875;28;20342;-71
2023/05/17 06:57:26;;;;;;;7.97;2.60;;;9.90;99.90;;;;;;4966657;28;20689;-71
2023/05/17 06:59:53;;;;;;;7.47;2.17;;;9.80;99.90;;;;;;4966853;28;20506;-70
2023/05/17 07:02:20;;;;;;;9.50;2.57;;;9.90;99.90;;;;;;4966570;28;20325;-71
2023/05/17 07:04:47;;;;;;;5.60;2.23;;;10.10;99.90;;;;;;4966922;28;20215;-71
2023/05/17 07:07:13;;;;;;;5.63;2.33;;;10.20;99.90;;;;;;4966809;28;20301;-71
2023/05/17 07:09:42;;;;;;;6.20;2.43;;;10.40;99.90;;;;;;4968613;28;20268;-70
2023/05/17 07:12:09;;;;;;;5.50;2.40;;;10.40;99.90;;;;;;4985973;28;20212;-71
2023/05/17 07:14:35;;;;;;;8.40;2.40;;;10.50;99.90;;;;;;4985412;28;20718;-71
2023/05/17 07:17:02;;;;;;;11.27;2.63;;;10.60;99.90;;;;;;4978103;28;20286;-71
2023/05/17 07:19:29;;;;;;;7.10;2.20;;;10.70;99.90;;;;;;4966375;28;20257;-71
2023/05/17 07:21:56;;;;;;;6.10;2.30;;;10.60;99.90;;;;;;4969811;28;20299;-71
2023/05/17 07:24:23;;;;;;;4.60;2.00;;;10.50;99.90;;;;;;4985086;28;20218;-71
2023/05/17 07:26:51;;;;;;;9.83;2.57;;;10.40;99.90;;;;;;4985602;28;20221;-71
2023/05/17 07:29:18;;;;;;;5.07;2.10;;;10.50;99.90;;;;;;4985669;28;20348;-71
2023/05/17 07:31:45;;;;;;;4.17;2.30;;;10.50;99.90;;;;;;4986059;28;20213;-71
2023/05/17 07:34:13;;;;;;;6.43;2.40;;;10.40;99.90;;;;;;4989378;28;20206;-71
2023/05/17 07:36:40;;;;;;;7.97;2.57;;;10.30;99.90;;;;;;4989102;28;20736;-71
2023/05/17 07:39:07;;;;;;;7.43;2.00;;;10.40;99.90;;;;;;4989181;28;20296;-71
2023/05/17 07:41:34;;;;;;;6.73;2.10;;;10.50;99.90;;;;;;4989431;28;20581;-71
2023/05/17 07:44:03;;;;;;;4.30;2.10;;;10.50;99.90;;;;;;4989415;28;20560;-71
2023/05/17 07:46:30;;;;;;;11.70;2.33;;;10.70;99.90;;;;;;4989179;28;20308;-71
2023/05/17 07:48:56;;;;;;;8.67;2.97;;;10.70;99.90;;;;;;4989110;28;20324;-74
2023/05/17 07:51:23;;;;;;;11.23;2.83;;;10.80;99.90;;;;;;4989208;28;20210;-71
2023/05/17 07:53:50;;;;;;;8.37;2.20;;;10.90;99.90;;;;;;4989194;28;20244;-71
2023/05/17 07:56:17;;;;;;;5.93;2.50;;;11.00;99.90;;;;;;4989095;28;20202;-71
2023/05/17 07:58:44;;;;;;;8.33;2.23;;;11.00;99.90;;;;;;4989090;28;20214;-72
2023/05/17 08:01:12;;;;;;;13.83;2.43;;;11.00;99.90;;;;;;4989139;28;20214;-71
2023/05/17 08:03:46;;;;;;;10.13;2.73;;;10.80;99.90;;;;;;4989172;28;20297;-71
2023/05/17 08:06:13;;;;;;;12.23;2.73;;;10.80;99.90;;;;;;4989101;28;20214;-71
2023/05/17 08:08:40;;;;;;;11.77;2.73;;;10.90;99.90;;;;;;4988007;28;20357;-71
2023/05/17 08:11:07;;;;;;;5.93;2.20;;;11.00;99.90;;;;;;4988633;28;20248;-70
2023/05/17 08:13:34;;;;;;;10.90;2.87;;;11.10;99.90;;;;;;4988653;28;20210;-71
2023/05/17 08:16:02;;;;;;;7.07;2.03;;;11.20;99.90;;;;;;4988431;28;20296;-71
2023/05/17 08:18:30;;;;;;;7.30;2.40;;;11.20;99.90;;;;;;4985002;28;20616;-72
2023/05/17 08:20:57;;;;;;;7.90;2.30;;;11.20;99.90;;;;;;4988688;28;21101;-71
2023/05/17 08:23:24;;;;;;;6.90;2.20;;;11.10;99.90;;;;;;4988304;28;20269;-71
2023/05/17 08:25:51;;;;;;;7.07;2.40;;;11.10;99.90;;;;;;4989054;28;20561;-71
2023/05/17 08:28:19;;;;;;;7.03;2.07;;;11.20;99.90;;;;;;4988535;28;20341;-72
2023/05/17 08:30:46;;;;;;;8.03;2.07;;;11.30;99.90;;;;;;4988971;28;20320;-71
2023/05/17 08:33:12;;;;;;;7.70;2.37;;;11.40;99.90;;;;;;4973353;28;20301;-71
2023/05/17 08:35:41;;;;;;;7.50;2.10;;;11.50;99.90;;;;;;4969372;28;20757;-71
2023/05/17 08:38:08;;;;;;;7.77;2.00;;;11.40;99.90;;;;;;4969223;28;20234;-71
2023/05/17 08:40:34;;;;;;;9.97;2.80;;;11.50;99.90;;;;;;4978273;28;20309;-72
2023/05/17 08:43:02;;;;;;;8.00;2.37;;;11.60;99.90;;;;;;4988641;28;20241;-72
2023/05/17 08:45:31;;;;;;;6.30;2.17;;;11.70;99.90;;;;;;4987893;28;20210;-71
2023/05/17 08:48:00;;;;;;;5.80;2.30;;;11.80;99.90;;;;;;4988618;28;20672;-71
2023/05/17 08:50:29;;;;;;;7.07;2.27;;;12.00;99.90;;;;;;4987865;28;20234;-71
2023/05/17 08:52:58;;;;;;;9.33;2.20;;;12.00;99.90;;;;;;4988358;28;20265;-71
2023/05/17 08:55:28;;;;;;;6.83;2.40;;;12.00;99.90;;;;;;4987998;28;20206;-71
2023/05/17 08:57:55;;;;;;;6.43;2.30;;;11.90;99.90;;;;;;4987796;28;20669;-75
2023/05/17 09:00:24;;;;;;;7.97;2.07;;;12.00;99.90;;;;;;4987775;28;20732;-72
2023/05/17 09:02:51;;;;;;;8.30;2.40;;;12.00;99.90;;;;;;4980815;28;20210;-71
2023/05/17 09:05:19;;;;;;;9.10;2.30;;;12.10;99.90;;;;;;4968224;28;20333;-71
2023/05/17 09:07:48;;;;;;;6.97;2.20;;;12.00;99.90;;;;;;4981598;28;20253;-71
2023/05/17 09:10:16;;;;;;;4.57;2.13;;;12.10;99.90;;;;;;4987263;28;20248;-74
2023/05/17 09:12:44;;;;;;;6.70;2.27;;;12.10;99.80;;;;;;4987564;28;20306;-72
2023/05/17 09:15:16;;;;;;;7.37;2.30;;;12.10;99.90;;;;;;4987586;28;20583;-72
2023/05/17 09:17:43;;;;;;;6.63;2.00;;;12.20;99.90;;;;;;4987374;28;20612;-71
2023/05/17 09:20:11;;;;;;;7.60;1.97;;;12.30;99.90;;;;;;4987196;28;21064;-72
2023/05/17 09:22:38;;;;;;;7.83;2.63;;;12.40;99.90;;;;;;4987496;28;20210;-71
2023/05/17 09:25:06;;;;;;;9.67;2.53;;;12.40;99.90;;;;;;4987211;28;20234;-71
2023/05/17 09:27:34;;;;;;;4.53;2.23;;;12.50;99.90;;;;;;4987016;28;20210;-72
2023/05/17 09:30:01;;;;;;;9.63;2.50;;;12.60;99.90;;;;;;4987206;28;20444;-71
2023/05/17 09:32:28;;;;;;;6.37;2.30;;;12.60;99.90;;;;;;4977219;28;20211;-71
2023/05/17 09:34:56;;;;;;;5.30;2.07;;;12.70;99.90;;;;;;4967851;28;20215;-71
2023/05/17 09:37:24;;;;;;;8.13;2.03;;;12.70;99.90;;;;;;4967690;28;20674;-72
2023/05/17 09:39:51;;;;;;;8.50;2.23;;;12.60;99.40;;;;;;4967849;28;20215;-71
2023/05/17 09:42:18;;;;;;;7.07;2.13;;;12.70;99.90;;;;;;4967572;28;20812;-71
2023/05/17 09:44:48;;;;;;;11.13;2.60;;;12.80;99.90;;;;;;4968086;28;20580;-72
2023/05/17 09:47:26;;;;;;;5.60;2.40;;;12.90;99.40;;;;;;4968210;28;20211;-72
2023/05/17 09:49:54;;;;;;;3.03;1.77;;;13.00;98.90;;;;;;4967809;28;20219;-71
2023/05/17 09:52:23;;;;;;;5.50;2.10;;;13.00;99.10;;;;;;4967491;28;20254;-72
2023/05/17 09:54:54;;;;;;;6.93;2.30;;;13.10;98.90;;;;;;4967367;28;20261;-72
2023/05/17 09:57:21;;;;;;;9.37;2.10;;;13.00;98.40;;;;;;4967114;28;20210;-71
2023/05/17 09:59:51;;;;;;;8.07;2.20;;;12.90;98.30;;;;;;4980234;28;20228;-71
2023/05/17 10:02:24;;;;;;;4.33;2.17;;;13.10;98.60;;;;;;4987298;28;20202;-72
2023/05/17 10:04:52;;;;;;;7.00;2.10;;;13.20;98.50;;;;;;4967962;28;20212;-72
2023/05/17 10:07:20;;;;;;;6.13;2.00;;;13.30;98.60;;;;;;4967176;28;20678;-71
2023/05/17 10:09:48;;;;;;;5.77;2.10;;;13.40;98.40;;;;;;4973295;28;20213;-72
2023/05/17 10:12:18;;;;;;;6.93;2.20;;;13.50;98.20;;;;;;4983110;28;20209;-71
2023/05/17 10:14:45;;;;;;;5.10;2.10;;;13.60;98.20;;;;;;4986669;28;20525;-72
2023/05/17 10:17:15;;;;;;;6.43;2.20;;;13.60;97.30;;;;;;4977301;28;20286;-71
2023/05/17 10:19:43;;;;;;;6.23;1.87;;;13.60;96.80;;;;;;4967056;28;20210;-71
2023/05/17 10:22:10;;;;;;;5.47;1.70;;;13.40;96.60;;;;;;4967133;28;20238;-71
2023/05/17 10:24:37;;;;;;;6.90;2.00;;;13.50;97.20;;;;;;4966944;28;20322;-71
2023/05/17 10:27:06;;;;;;;5.87;2.17;;;13.50;97.10;;;;;;4967324;28;20612;-71
2023/05/17 10:29:34;;;;;;;6.37;2.50;;;13.60;97.30;;;;;;4966749;28;20233;-72
2023/05/17 10:32:06;;;;;;;6.37;2.10;;;13.80;97.60;;;;;;4967460;28;20211;-71
2023/05/17 10:34:35;;;;;;;5.87;2.27;;;14.00;96.50;;;;;;4967441;28;20206;-71
2023/05/17 10:37:04;;;;;;;5.83;1.73;;;14.10;96.70;;;;;;4967332;28;20215;-72
2023/05/17 10:39:33;;;;;;;7.07;2.40;;;14.20;96.40;;;;;;4967575;28;20293;-72
2023/05/17 10:42:02;;;;;;;6.60;1.80;;;14.30;96.70;;;;;;4986779;28;20301;-72
2023/05/17 10:44:31;;;;;;;2.83;1.70;;;14.40;97.00;;;;;;4986613;28;20221;-72
2023/05/17 10:46:59;;;;;;;6.53;1.90;;;14.50;96.20;;;;;;4986806;28;20221;-72
2023/05/17 10:49:27;;;;;;;4.93;2.20;;;14.70;96.60;;;;;;4986306;28;20404;-72
2023/05/17 10:51:57;;;;;;;8.43;3.90;;;14.80;95.80;;;;;;4986311;28;20242;-72
2023/05/17 10:54:35;;;;;;;4.50;1.90;;;14.80;95.20;;;;;;4986293;28;20280;-72
2023/05/17 10:57:05;;;;;;;5.17;1.93;;;14.70;95.40;;;;;;4986368;28;20280;-71
2023/05/17 10:59:32;;;;;;;9.50;2.20;;;14.90;96.10;;;;;;4985817;28;20329;-72
2023/05/17 11:02:02;;;;;;;3.93;2.07;;;14.90;96.00;;;;;;4983035;28;20241;-71
2023/05/17 11:04:33;;;;;;;11.07;2.33;;;15.10;96.00;;;;;;4986178;28;20217;-71
2023/05/17 11:07:25;;;;;;;4.77;1.80;;;15.20;96.00;;;;;;4986006;28;20221;-71
2023/05/17 11:09:54;;;;;;;4.13;2.10;;;15.50;96.50;;;;;;4990076;28;20229;-71
2023/05/17 11:12:30;;;;;;;9.07;2.00;;;15.60;96.00;;;;;;4990349;28;20301;-72
2023/05/17 11:14:58;;;;;;;12.47;2.30;;;15.70;94.50;;;;;;4990269;28;20202;-71
2023/05/17 11:17:26;;;;;;;8.43;2.63;;;15.80;94.70;;;;;;4979008;28;20217;-71
2023/05/17 11:20:05;;;;;;;8.37;2.17;;;15.90;94.10;;;;;;4970378;28;20219;-71
2023/05/17 11:22:39;;;;;;;5.70;1.87;;;15.90;93.90;;;;;;4970474;28;20278;-71
2023/05/17 11:25:08;;;;;;;4.27;1.70;;;16.00;94.40;;;;;;4970566;28;20220;-71
2023/05/17 11:27:43;;;;;;;8.43;2.27;;;16.00;93.90;;;;;;4970134;28;20215;-71
2023/05/17 11:30:25;;;;;;;11.37;2.63;;;16.20;94.50;;;;;;4970266;28;20230;-71
2023/05/17 11:32:54;;;;;;;6.67;2.33;;;16.30;93.50;;;;;;4970413;28;20293;-71
2023/05/17 11:35:26;;;;;;;5.10;1.80;;;16.40;93.10;;;;;;4969582;28;20285;-71
2023/05/17 11:38:11;;;;;;;8.87;2.17;;;16.50;93.60;;;;;;4969927;28;20744;-71
2023/05/17 11:40:38;;;;;;;4.87;1.80;;;16.50;93.10;;;;;;4979287;28;20652;-71
2023/05/17 11:43:16;;;;;;;8.93;2.20;;;16.60;93.20;;;;;;4989513;28;20206;-71
2023/05/17 11:45:44;;;;;;;9.93;2.07;;;16.70;92.70;;;;;;4989891;28;20580;-71
2023/05/17 11:48:12;;;;;;;6.80;1.93;;;16.70;93.00;;;;;;4989651;28;20222;-71
2023/05/17 11:50:40;;;;;;;5.70;2.13;;;16.70;92.50;;;;;;4990017;28;20253;-72
2023/05/17 11:53:09;;;;;;;7.77;2.60;;;16.70;91.80;;;;;;4989622;28;20231;-71
2023/05/17 11:55:39;;;;;;;4.33;2.20;;;16.70;91.60;;;;;;4986955;28;20520;-71
2023/05/17 11:58:08;;;;;;;5.53;2.17;;;16.90;92.20;;;;;;4989484;28;20218;-71
2023/05/17 12:00:36;;;;;;;4.40;1.93;;;16.90;90.80;;;;;;4989363;28;20222;-71
2023/05/17 12:03:19;;;;;;;30.50;4.03;;;17.00;91.50;;;;;;4987840;28;20306;-71
2023/05/17 12:05:48;;;;;;;5.73;2.27;;;17.30;91.90;;;;;;4989060;28;20293;-71
2023/05/17 12:08:17;;;;;;;5.57;2.20;;;17.20;90.80;;;;;;4988730;28;20329;-71
2023/05/17 12:10:46;;;;;;;6.40;2.20;;;17.00;91.00;;;;;;4988606;28;20248;-71
2023/05/17 12:13:13;;;;;;;6.80;2.43;;;17.00;90.80;;;;;;4989066;28;20573;-71
2023/05/17 12:15:41;;;;;;;8.63;2.50;;;17.10;90.80;;;;;;4989013;28;20527;-71
2023/05/17 12:18:08;;;;;;;7.63;2.30;;;17.20;91.30;;;;;;4988361;28;21088;-71
2023/05/17 12:20:36;;;;;;;5.27;1.80;;;17.40;91.20;;;;;;4987715;28;20583;-71
2023/05/17 12:23:03;;;;;;;8.83;2.17;;;17.60;90.60;;;;;;4989097;28;20293;-71
2023/05/17 12:25:32;;;;;;;4.70;2.17;;;17.80;90.60;;;;;;4988534;28;20246;-71
2023/05/17 12:28:17;;;;;;;5.13;2.07;;;18.00;90.10;;;;;;4988757;28;20720;-71
2023/05/17 12:30:45;;;;;;;6.03;1.93;;;18.10;90.10;;;;;;4988809;28;20230;-72
2023/05/17 12:33:13;;;;;;;5.20;1.90;;;18.30;89.80;;;;;;4973420;28;20305;-72
2023/05/17 12:35:40;;;;;;;4.17;1.83;;;18.30;86.80;;;;;;4968838;28;20207;-71
2023/05/17 12:38:08;;;;;;;5.60;1.90;;;18.20;86.50;;;;;;4969009;28;20214;-71
2023/05/17 12:40:39;;;;;;;5.33;1.97;;;18.10;87.00;;;;;;4978086;28;20596;-72
2023/05/17 12:43:06;;;;;;;4.90;2.20;;;18.30;88.00;;;;;;4988409;28;20297;-72
2023/05/17 12:45:34;;;;;;;11.00;2.50;;;18.40;88.70;;;;;;4987921;28;20620;-72
2023/05/17 12:48:01;;;;;;;2.67;1.77;;;18.30;87.40;;;;;;4988521;28;20234;-72
2023/05/17 12:50:30;;;;;;;5.37;2.40;;;18.50;87.30;;;;;;4987810;28;20220;-72
2023/05/17 12:52:57;;;;;;;9.17;2.33;;;18.70;87.20;;;;;;4987783;28;20232;-72
2023/05/17 12:55:25;;;;;;;11.40;2.40;;;18.90;86.70;;;;;;4987393;28;20249;-72